sensor_id;sensor_type;location;lat;lon;timestamp;temperature;humidity
78315;SHT31;68596;52.080;4.662;2023-07-13T00:01:32;20.77;69.48
78315;SHT31;68596;52.080;4.662;2023-07-13T00:04:17;20.79;69.39
78315;SHT31;68596;52.080;4.662;2023-07-13T00:07:02;20.76;69.43
78315;SHT31;68596;52.080;4.662;2023-07-13T00:09:47;20.70;69.31
78315;SHT31;68596;52.080;4.662;2023-07-13T00:12:34;20.71;69.40
78315;SHT31;68596;52.080;4.662;2023-07-13T00:15:24;20.70;69.36
78315;SHT31;68596;52.080;4.662;2023-07-13T00:18:09;20.70;69.30
78315;SHT31;68596;52.080;4.662;2023-07-13T00:20:53;20.71;69.33
78315;SHT31;68596;52.080;4.662;2023-07-13T00:23:40;20.71;69.38
78315;SHT31;68596;52.080;4.662;2023-07-13T00:26:24;20.70;69.51
78315;SHT31;68596;52.080;4.662;2023-07-13T00:29:08;20.70;69.87
78315;SHT31;68596;52.080;4.662;2023-07-13T00:31:52;20.70;69.97
78315;SHT31;68596;52.080;4.662;2023-07-13T00:34:38;20.70;69.54
78315;SHT31;68596;52.080;4.662;2023-07-13T00:37:22;20.70;69.79
78315;SHT31;68596;52.080;4.662;2023-07-13T00:40:06;20.71;69.34
78315;SHT31;68596;52.080;4.662;2023-07-13T00:42:52;20.69;69.43
78315;SHT31;68596;52.080;4.662;2023-07-13T00:48:28;20.69;69.70
78315;SHT31;68596;52.080;4.662;2023-07-13T00:51:17;20.66;69.46
78315;SHT31;68596;52.080;4.662;2023-07-13T00:54:06;20.69;69.15
78315;SHT31;68596;52.080;4.662;2023-07-13T00:56:57;20.67;69.10
78315;SHT31;68596;52.080;4.662;2023-07-13T00:59:49;20.66;68.98
78315;SHT31;68596;52.080;4.662;2023-07-13T01:02:35;20.64;68.99
78315;SHT31;68596;52.080;4.662;2023-07-13T01:05:21;20.66;69.25
78315;SHT31;68596;52.080;4.662;2023-07-13T01:08:06;20.67;68.89
78315;SHT31;68596;52.080;4.662;2023-07-13T01:10:56;20.63;68.75
78315;SHT31;68596;52.080;4.662;2023-07-13T01:13:41;20.59;68.77
78315;SHT31;68596;52.080;4.662;2023-07-13T01:16:29;20.57;68.78
78315;SHT31;68596;52.080;4.662;2023-07-13T01:22:20;20.51;69.09
78315;SHT31;68596;52.080;4.662;2023-07-13T01:25:09;20.53;68.77
78315;SHT31;68596;52.080;4.662;2023-07-13T01:27:53;20.50;69.04
78315;SHT31;68596;52.080;4.662;2023-07-13T01:30:39;20.50;68.87
78315;SHT31;68596;52.080;4.662;2023-07-13T01:33:25;20.47;68.74
78315;SHT31;68596;52.080;4.662;2023-07-13T01:36:10;20.43;69.01
78315;SHT31;68596;52.080;4.662;2023-07-13T01:38:55;20.44;68.86
78315;SHT31;68596;52.080;4.662;2023-07-13T01:41:39;20.43;69.28
78315;SHT31;68596;52.080;4.662;2023-07-13T01:44:23;20.43;69.15
78315;SHT31;68596;52.080;4.662;2023-07-13T01:47:08;20.40;69.05
78315;SHT31;68596;52.080;4.662;2023-07-13T01:49:52;20.39;69.00
78315;SHT31;68596;52.080;4.662;2023-07-13T01:52:36;20.37;69.18
78315;SHT31;68596;52.080;4.662;2023-07-13T01:55:21;20.37;68.89
78315;SHT31;68596;52.080;4.662;2023-07-13T01:58:05;20.30;69.18
78315;SHT31;68596;52.080;4.662;2023-07-13T02:00:51;20.30;68.68
78315;SHT31;68596;52.080;4.662;2023-07-13T02:03:35;20.23;68.86
78315;SHT31;68596;52.080;4.662;2023-07-13T02:06:20;20.23;68.94
78315;SHT31;68596;52.080;4.662;2023-07-13T02:09:04;20.22;69.12
78315;SHT31;68596;52.080;4.662;2023-07-13T02:11:48;20.22;68.38
78315;SHT31;68596;52.080;4.662;2023-07-13T02:14:32;20.19;68.58
78315;SHT31;68596;52.080;4.662;2023-07-13T02:17:16;20.12;69.02
78315;SHT31;68596;52.080;4.662;2023-07-13T02:20:01;20.13;68.70
78315;SHT31;68596;52.080;4.662;2023-07-13T02:22:46;20.10;68.88
78315;SHT31;68596;52.080;4.662;2023-07-13T02:25:30;20.06;68.54
78315;SHT31;68596;52.080;4.662;2023-07-13T02:28:14;20.06;68.24
78315;SHT31;68596;52.080;4.662;2023-07-13T02:31:10;20.04;68.40
78315;SHT31;68596;52.080;4.662;2023-07-13T02:33:54;20.02;67.44
78315;SHT31;68596;52.080;4.662;2023-07-13T02:36:38;19.99;67.96
78315;SHT31;68596;52.080;4.662;2023-07-13T02:39:22;19.96;68.26
78315;SHT31;68596;52.080;4.662;2023-07-13T02:42:07;19.93;68.34
78315;SHT31;68596;52.080;4.662;2023-07-13T02:44:51;19.92;68.21
78315;SHT31;68596;52.080;4.662;2023-07-13T02:47:36;19.88;68.23
78315;SHT31;68596;52.080;4.662;2023-07-13T02:50:20;19.86;68.35
78315;SHT31;68596;52.080;4.662;2023-07-13T02:53:04;19.88;68.04
78315;SHT31;68596;52.080;4.662;2023-07-13T02:55:48;19.86;68.30
78315;SHT31;68596;52.080;4.662;2023-07-13T02:58:32;19.82;68.52
78315;SHT31;68596;52.080;4.662;2023-07-13T03:01:17;19.82;68.64
78315;SHT31;68596;52.080;4.662;2023-07-13T03:04:02;19.81;68.69
78315;SHT31;68596;52.080;4.662;2023-07-13T03:06:47;19.79;68.76
78315;SHT31;68596;52.080;4.662;2023-07-13T03:09:32;19.78;69.07
78315;SHT31;68596;52.080;4.662;2023-07-13T03:12:17;19.78;69.32
78315;SHT31;68596;52.080;4.662;2023-07-13T03:15:01;19.75;69.56
78315;SHT31;68596;52.080;4.662;2023-07-13T03:17:46;19.72;69.59
78315;SHT31;68596;52.080;4.662;2023-07-13T03:20:35;19.69;69.43
78315;SHT31;68596;52.080;4.662;2023-07-13T03:23:21;19.72;69.57
78315;SHT31;68596;52.080;4.662;2023-07-13T03:26:11;19.71;69.82
78315;SHT31;68596;52.080;4.662;2023-07-13T03:28:56;19.69;70.25
78315;SHT31;68596;52.080;4.662;2023-07-13T03:31:40;19.71;70.17
78315;SHT31;68596;52.080;4.662;2023-07-13T03:34:24;19.68;70.17
78315;SHT31;68596;52.080;4.662;2023-07-13T03:37:09;19.71;70.35
78315;SHT31;68596;52.080;4.662;2023-07-13T03:39:53;19.69;70.35
78315;SHT31;68596;52.080;4.662;2023-07-13T03:42:38;19.68;70.58
78315;SHT31;68596;52.080;4.662;2023-07-13T03:45:22;19.69;70.72
78315;SHT31;68596;52.080;4.662;2023-07-13T03:48:06;19.68;70.66
78315;SHT31;68596;52.080;4.662;2023-07-13T03:50:50;19.68;70.72
78315;SHT31;68596;52.080;4.662;2023-07-13T03:53:38;19.71;70.90
78315;SHT31;68596;52.080;4.662;2023-07-13T03:56:23;19.68;70.93
78315;SHT31;68596;52.080;4.662;2023-07-13T03:59:07;19.67;71.36
78315;SHT31;68596;52.080;4.662;2023-07-13T04:01:51;19.65;71.30
78315;SHT31;68596;52.080;4.662;2023-07-13T04:04:36;19.64;71.22
78315;SHT31;68596;52.080;4.662;2023-07-13T04:07:20;19.64;71.41
78315;SHT31;68596;52.080;4.662;2023-07-13T04:10:04;19.62;71.66
78315;SHT31;68596;52.080;4.662;2023-07-13T04:12:48;19.64;71.63
78315;SHT31;68596;52.080;4.662;2023-07-13T04:15:33;19.67;71.60
78315;SHT31;68596;52.080;4.662;2023-07-13T04:18:17;19.68;71.90
78315;SHT31;68596;52.080;4.662;2023-07-13T04:21:01;19.69;71.93
78315;SHT31;68596;52.080;4.662;2023-07-13T04:23:47;19.67;72.20
78315;SHT31;68596;52.080;4.662;2023-07-13T04:26:31;19.65;72.53
78315;SHT31;68596;52.080;4.662;2023-07-13T04:29:16;19.65;72.30
78315;SHT31;68596;52.080;4.662;2023-07-13T04:32:01;19.68;72.58
78315;SHT31;68596;52.080;4.662;2023-07-13T04:34:46;19.68;72.36
78315;SHT31;68596;52.080;4.662;2023-07-13T04:37:30;19.72;72.21
78315;SHT31;68596;52.080;4.662;2023-07-13T04:40:14;19.77;72.56
78315;SHT31;68596;52.080;4.662;2023-07-13T04:42:58;19.79;72.53
78315;SHT31;68596;52.080;4.662;2023-07-13T04:45:42;19.78;72.55
78315;SHT31;68596;52.080;4.662;2023-07-13T04:48:27;19.85;72.66
78315;SHT31;68596;52.080;4.662;2023-07-13T04:51:11;19.86;72.48
78315;SHT31;68596;52.080;4.662;2023-07-13T04:53:55;19.89;72.63
78315;SHT31;68596;52.080;4.662;2023-07-13T04:56:39;19.90;72.47
78315;SHT31;68596;52.080;4.662;2023-07-13T04:59:23;19.92;72.34
78315;SHT31;68596;52.080;4.662;2023-07-13T05:02:08;19.99;72.25
78315;SHT31;68596;52.080;4.662;2023-07-13T05:04:52;19.99;72.20
78315;SHT31;68596;52.080;4.662;2023-07-13T05:07:36;20.04;72.11
78315;SHT31;68596;52.080;4.662;2023-07-13T05:10:20;20.08;72.53
78315;SHT31;68596;52.080;4.662;2023-07-13T05:13:05;20.09;72.49
78315;SHT31;68596;52.080;4.662;2023-07-13T05:15:58;20.10;71.98
78315;SHT31;68596;52.080;4.662;2023-07-13T05:18:43;20.13;71.91
78315;SHT31;68596;52.080;4.662;2023-07-13T05:21:27;20.18;71.62
78315;SHT31;68596;52.080;4.662;2023-07-13T05:24:11;20.20;71.75
78315;SHT31;68596;52.080;4.662;2023-07-13T05:26:56;20.25;72.04
78315;SHT31;68596;52.080;4.662;2023-07-13T05:29:40;20.29;71.53
78315;SHT31;68596;52.080;4.662;2023-07-13T05:32:24;20.34;71.71
78315;SHT31;68596;52.080;4.662;2023-07-13T05:35:08;20.37;71.49
78315;SHT31;68596;52.080;4.662;2023-07-13T05:37:53;20.41;71.16
78315;SHT31;68596;52.080;4.662;2023-07-13T05:40:37;20.50;71.41
78315;SHT31;68596;52.080;4.662;2023-07-13T05:43:22;20.56;71.21
78315;SHT31;68596;52.080;4.662;2023-07-13T05:46:06;20.60;70.49
78315;SHT31;68596;52.080;4.662;2023-07-13T05:48:50;20.63;70.36
78315;SHT31;68596;52.080;4.662;2023-07-13T05:51:35;20.63;70.11
78315;SHT31;68596;52.080;4.662;2023-07-13T05:54:19;20.63;70.01
78315;SHT31;68596;52.080;4.662;2023-07-13T05:57:03;20.70;69.88
78315;SHT31;68596;52.080;4.662;2023-07-13T05:59:48;20.74;69.67
78315;SHT31;68596;52.080;4.662;2023-07-13T06:02:32;20.71;69.55
78315;SHT31;68596;52.080;4.662;2023-07-13T06:05:16;20.76;69.50
78315;SHT31;68596;52.080;4.662;2023-07-13T06:08:01;20.77;69.38
78315;SHT31;68596;52.080;4.662;2023-07-13T06:10:46;20.79;69.19
78315;SHT31;68596;52.080;4.662;2023-07-13T06:13:30;20.80;68.83
78315;SHT31;68596;52.080;4.662;2023-07-13T06:16:17;20.85;68.83
78315;SHT31;68596;52.080;4.662;2023-07-13T06:19:01;20.84;68.26
78315;SHT31;68596;52.080;4.662;2023-07-13T06:21:46;20.83;67.64
78315;SHT31;68596;52.080;4.662;2023-07-13T06:24:30;20.80;68.01
78315;SHT31;68596;52.080;4.662;2023-07-13T06:27:15;20.83;67.98
78315;SHT31;68596;52.080;4.662;2023-07-13T06:30:00;20.81;67.75
78315;SHT31;68596;52.080;4.662;2023-07-13T06:32:45;20.80;67.71
78315;SHT31;68596;52.080;4.662;2023-07-13T06:35:30;20.80;67.82
78315;SHT31;68596;52.080;4.662;2023-07-13T06:38:14;20.80;67.98
78315;SHT31;68596;52.080;4.662;2023-07-13T06:40:58;20.81;67.40
78315;SHT31;68596;52.080;4.662;2023-07-13T06:43:42;20.77;67.61
78315;SHT31;68596;52.080;4.662;2023-07-13T06:46:29;20.80;67.85
78315;SHT31;68596;52.080;4.662;2023-07-13T06:49:13;20.80;67.80
78315;SHT31;68596;52.080;4.662;2023-07-13T06:51:57;20.77;67.33
78315;SHT31;68596;52.080;4.662;2023-07-13T06:54:41;20.74;67.27
78315;SHT31;68596;52.080;4.662;2023-07-13T06:57:25;20.64;67.45
78315;SHT31;68596;52.080;4.662;2023-07-13T07:00:11;20.60;67.89
78315;SHT31;68596;52.080;4.662;2023-07-13T07:02:56;20.59;68.15
78315;SHT31;68596;52.080;4.662;2023-07-13T07:05:40;20.64;67.94
78315;SHT31;68596;52.080;4.662;2023-07-13T07:08:25;20.69;67.59
78315;SHT31;68596;52.080;4.662;2023-07-13T07:11:13;20.73;67.60
78315;SHT31;68596;52.080;4.662;2023-07-13T07:13:57;20.73;68.44
78315;SHT31;68596;52.080;4.662;2023-07-13T07:16:41;20.76;68.09
78315;SHT31;68596;52.080;4.662;2023-07-13T07:19:25;20.79;67.71
78315;SHT31;68596;52.080;4.662;2023-07-13T07:22:09;20.81;67.45
78315;SHT31;68596;52.080;4.662;2023-07-13T07:24:53;20.85;67.84
78315;SHT31;68596;52.080;4.662;2023-07-13T07:27:38;20.87;67.65
78315;SHT31;68596;52.080;4.662;2023-07-13T07:30:22;20.87;67.53
78315;SHT31;68596;52.080;4.662;2023-07-13T07:33:06;20.88;67.37
78315;SHT31;68596;52.080;4.662;2023-07-13T07:35:51;20.88;67.73
78315;SHT31;68596;52.080;4.662;2023-07-13T07:38:35;20.88;67.60
78315;SHT31;68596;52.080;4.662;2023-07-13T07:41:19;20.94;66.92
78315;SHT31;68596;52.080;4.662;2023-07-13T07:44:04;20.95;66.48
78315;SHT31;68596;52.080;4.662;2023-07-13T07:46:51;21.01;66.96
78315;SHT31;68596;52.080;4.662;2023-07-13T07:49:36;21.10;67.16
78315;SHT31;68596;52.080;4.662;2023-07-13T07:52:20;21.15;67.00
78315;SHT31;68596;52.080;4.662;2023-07-13T07:55:07;21.17;66.63
78315;SHT31;68596;52.080;4.662;2023-07-13T07:57:51;21.15;66.51
78315;SHT31;68596;52.080;4.662;2023-07-13T08:00:35;21.15;66.42
78315;SHT31;68596;52.080;4.662;2023-07-13T08:03:19;21.10;66.01
78315;SHT31;68596;52.080;4.662;2023-07-13T08:06:03;21.07;66.39
78315;SHT31;68596;52.080;4.662;2023-07-13T08:08:47;21.11;66.31
78315;SHT31;68596;52.080;4.662;2023-07-13T08:11:32;21.18;66.44
78315;SHT31;68596;52.080;4.662;2023-07-13T08:14:16;21.24;65.59
78315;SHT31;68596;52.080;4.662;2023-07-13T08:17:00;21.27;65.63
78315;SHT31;68596;52.080;4.662;2023-07-13T08:19:46;21.28;65.26
78315;SHT31;68596;52.080;4.662;2023-07-13T08:22:31;21.31;65.13
78315;SHT31;68596;52.080;4.662;2023-07-13T08:25:15;21.35;65.15
78315;SHT31;68596;52.080;4.662;2023-07-13T08:28:00;21.34;64.73
78315;SHT31;68596;52.080;4.662;2023-07-13T08:30:44;21.37;64.98
78315;SHT31;68596;52.080;4.662;2023-07-13T08:33:34;21.37;64.61
78315;SHT31;68596;52.080;4.662;2023-07-13T08:36:19;21.38;64.67
78315;SHT31;68596;52.080;4.662;2023-07-13T08:39:03;21.35;64.81
78315;SHT31;68596;52.080;4.662;2023-07-13T08:41:54;21.34;65.10
78315;SHT31;68596;52.080;4.662;2023-07-13T08:44:51;21.32;64.59
78315;SHT31;68596;52.080;4.662;2023-07-13T08:47:44;21.27;64.28
78315;SHT31;68596;52.080;4.662;2023-07-13T08:50:35;21.24;63.85
78315;SHT31;68596;52.080;4.662;2023-07-13T08:53:31;21.24;64.73
78315;SHT31;68596;52.080;4.662;2023-07-13T08:56:22;21.27;65.20
78315;SHT31;68596;52.080;4.662;2023-07-13T08:59:17;21.31;64.72
78315;SHT31;68596;52.080;4.662;2023-07-13T09:05:27;21.35;64.45
78315;SHT31;68596;52.080;4.662;2023-07-13T09:11:41;21.44;64.13
78315;SHT31;68596;52.080;4.662;2023-07-13T09:17:27;21.42;63.15
78315;SHT31;68596;52.080;4.662;2023-07-13T09:23:24;21.39;63.48
78315;SHT31;68596;52.080;4.662;2023-07-13T09:29:23;21.46;63.62
78315;SHT31;68596;52.080;4.662;2023-07-13T09:32:14;21.52;63.63
78315;SHT31;68596;52.080;4.662;2023-07-13T09:35:00;21.58;64.03
78315;SHT31;68596;52.080;4.662;2023-07-13T09:37:46;21.61;63.05
78315;SHT31;68596;52.080;4.662;2023-07-13T09:44:12;21.72;63.01
78315;SHT31;68596;52.080;4.662;2023-07-13T09:46:57;21.81;62.95
78315;SHT31;68596;52.080;4.662;2023-07-13T09:49:42;21.86;62.89
78315;SHT31;68596;52.080;4.662;2023-07-13T09:52:42;21.97;62.66
78315;SHT31;68596;52.080;4.662;2023-07-13T09:55:35;21.93;62.40
78315;SHT31;68596;52.080;4.662;2023-07-13T09:58:26;21.92;62.67
78315;SHT31;68596;52.080;4.662;2023-07-13T10:01:13;21.85;62.55
78315;SHT31;68596;52.080;4.662;2023-07-13T10:03:58;21.83;63.25
78315;SHT31;68596;52.080;4.662;2023-07-13T10:06:42;21.85;63.28
78315;SHT31;68596;52.080;4.662;2023-07-13T10:09:26;21.97;64.02
78315;SHT31;68596;52.080;4.662;2023-07-13T10:12:16;22.02;62.52
78315;SHT31;68596;52.080;4.662;2023-07-13T10:15:02;22.09;63.04
78315;SHT31;68596;52.080;4.662;2023-07-13T10:17:51;22.20;63.38
78315;SHT31;68596;52.080;4.662;2023-07-13T10:20:35;22.24;62.63
78315;SHT31;68596;52.080;4.662;2023-07-13T10:23:24;22.27;61.63
78315;SHT31;68596;52.080;4.662;2023-07-13T10:26:18;22.26;62.44
78315;SHT31;68596;52.080;4.662;2023-07-13T10:29:14;22.27;62.52
78315;SHT31;68596;52.080;4.662;2023-07-13T10:32:00;22.27;61.45
78315;SHT31;68596;52.080;4.662;2023-07-13T10:34:47;22.36;62.12
78315;SHT31;68596;52.080;4.662;2023-07-13T10:37:54;22.43;62.31
78315;SHT31;68596;52.080;4.662;2023-07-13T10:43:55;22.54;61.89
78315;SHT31;68596;52.080;4.662;2023-07-13T10:46:43;22.57;60.50
78315;SHT31;68596;52.080;4.662;2023-07-13T10:49:30;22.57;60.49
78315;SHT31;68596;52.080;4.662;2023-07-13T10:52:50;22.63;60.13
78315;SHT31;68596;52.080;4.662;2023-07-13T10:58:42;22.60;59.31
78315;SHT31;68596;52.080;4.662;2023-07-13T11:01:50;22.60;60.14
78315;SHT31;68596;52.080;4.662;2023-07-13T11:04:42;22.57;59.60
78315;SHT31;68596;52.080;4.662;2023-07-13T11:07:30;22.54;59.98
78315;SHT31;68596;52.080;4.662;2023-07-13T11:10:55;22.58;60.35
78315;SHT31;68596;52.080;4.662;2023-07-13T11:16:41;22.69;59.94
78315;SHT31;68596;52.080;4.662;2023-07-13T11:19:38;22.69;60.13
78315;SHT31;68596;52.080;4.662;2023-07-13T11:22:51;22.71;60.30
78315;SHT31;68596;52.080;4.662;2023-07-13T11:25:36;22.75;60.62
78315;SHT31;68596;52.080;4.662;2023-07-13T11:28:24;22.79;60.81
78315;SHT31;68596;52.080;4.662;2023-07-13T11:31:16;22.87;60.80
78315;SHT31;68596;52.080;4.662;2023-07-13T11:34:01;22.88;59.89
78315;SHT31;68596;52.080;4.662;2023-07-13T11:36:47;22.98;60.45
78315;SHT31;68596;52.080;4.662;2023-07-13T11:39:35;23.09;59.35
78315;SHT31;68596;52.080;4.662;2023-07-13T11:42:22;23.21;58.88
78315;SHT31;68596;52.080;4.662;2023-07-13T11:45:21;23.37;58.57
78315;SHT31;68596;52.080;4.662;2023-07-13T11:48:19;23.52;58.91
78315;SHT31;68596;52.080;4.662;2023-07-13T11:51:05;23.63;58.18
78315;SHT31;68596;52.080;4.662;2023-07-13T11:53:53;23.70;55.93
78315;SHT31;68596;52.080;4.662;2023-07-13T11:56:37;23.80;57.15
78315;SHT31;68596;52.080;4.662;2023-07-13T11:59:22;23.84;56.17
78315;SHT31;68596;52.080;4.662;2023-07-13T12:02:36;23.86;56.41
78315;SHT31;68596;52.080;4.662;2023-07-13T12:05:22;23.89;56.23
78315;SHT31;68596;52.080;4.662;2023-07-13T12:08:10;23.92;57.33
78315;SHT31;68596;52.080;4.662;2023-07-13T12:11:13;23.92;56.64
78315;SHT31;68596;52.080;4.662;2023-07-13T12:13:58;24.02;56.08
78315;SHT31;68596;52.080;4.662;2023-07-13T12:16:44;23.99;55.47
78315;SHT31;68596;52.080;4.662;2023-07-13T12:19:30;23.96;54.62
78315;SHT31;68596;52.080;4.662;2023-07-13T12:22:17;23.87;56.14
78315;SHT31;68596;52.080;4.662;2023-07-13T12:25:03;23.86;56.08
78315;SHT31;68596;52.080;4.662;2023-07-13T12:27:50;23.86;56.29
78315;SHT31;68596;52.080;4.662;2023-07-13T12:30:35;23.89;55.93
78315;SHT31;68596;52.080;4.662;2023-07-13T12:33:20;23.92;55.83
78315;SHT31;68596;52.080;4.662;2023-07-13T12:36:06;23.87;54.46
78315;SHT31;68596;52.080;4.662;2023-07-13T12:38:51;23.86;55.26
78315;SHT31;68596;52.080;4.662;2023-07-13T12:41:35;23.82;55.61
78315;SHT31;68596;52.080;4.662;2023-07-13T12:44:30;23.90;55.49
78315;SHT31;68596;52.080;4.662;2023-07-13T12:47:16;23.86;55.53
78315;SHT31;68596;52.080;4.662;2023-07-13T12:50:03;23.89;55.20
78315;SHT31;68596;52.080;4.662;2023-07-13T12:53:01;23.92;55.64
78315;SHT31;68596;52.080;4.662;2023-07-13T12:55:53;23.96;55.34
78315;SHT31;68596;52.080;4.662;2023-07-13T12:58:40;23.99;55.25
78315;SHT31;68596;52.080;4.662;2023-07-13T13:01:34;24.00;54.62
78315;SHT31;68596;52.080;4.662;2023-07-13T13:04:19;23.99;55.37
78315;SHT31;68596;52.080;4.662;2023-07-13T13:07:09;24.03;55.46
78315;SHT31;68596;52.080;4.662;2023-07-13T13:09:54;24.06;55.04
78315;SHT31;68596;52.080;4.662;2023-07-13T13:12:39;24.09;54.86
78315;SHT31;68596;52.080;4.662;2023-07-13T13:15:24;24.09;54.69
78315;SHT31;68596;52.080;4.662;2023-07-13T13:18:17;24.10;54.73
78315;SHT31;68596;52.080;4.662;2023-07-13T13:21:02;24.10;54.69
78315;SHT31;68596;52.080;4.662;2023-07-13T13:23:46;24.09;54.94
78315;SHT31;68596;52.080;4.662;2023-07-13T13:26:30;24.04;55.38
78315;SHT31;68596;52.080;4.662;2023-07-13T13:29:19;24.00;55.72
78315;SHT31;68596;52.080;4.662;2023-07-13T13:32:04;23.99;55.04
78315;SHT31;68596;52.080;4.662;2023-07-13T13:34:49;23.90;55.73
78315;SHT31;68596;52.080;4.662;2023-07-13T13:37:34;23.84;55.52
78315;SHT31;68596;52.080;4.662;2023-07-13T13:40:21;23.77;55.39
78315;SHT31;68596;52.080;4.662;2023-07-13T13:46:00;23.65;54.97
78315;SHT31;68596;52.080;4.662;2023-07-13T13:48:46;23.62;54.85
78315;SHT31;68596;52.080;4.662;2023-07-13T13:51:30;23.63;55.32
78315;SHT31;68596;52.080;4.662;2023-07-13T13:54:17;23.63;54.30
78315;SHT31;68596;52.080;4.662;2023-07-13T13:57:02;23.63;54.91
78315;SHT31;68596;52.080;4.662;2023-07-13T13:59:47;23.63;55.63
78315;SHT31;68596;52.080;4.662;2023-07-13T14:02:31;23.66;54.53
78315;SHT31;68596;52.080;4.662;2023-07-13T14:05:22;23.65;55.22
78315;SHT31;68596;52.080;4.662;2023-07-13T14:08:13;23.67;55.20
78315;SHT31;68596;52.080;4.662;2023-07-13T14:10:58;23.73;54.19
78315;SHT31;68596;52.080;4.662;2023-07-13T14:13:51;23.73;54.08
78315;SHT31;68596;52.080;4.662;2023-07-13T14:16:36;23.74;52.92
78315;SHT31;68596;52.080;4.662;2023-07-13T14:19:21;23.73;54.22
78315;SHT31;68596;52.080;4.662;2023-07-13T14:22:07;23.66;54.52
78315;SHT31;68596;52.080;4.662;2023-07-13T14:24:53;23.72;54.64
78315;SHT31;68596;52.080;4.662;2023-07-13T14:27:38;23.73;54.84
78315;SHT31;68596;52.080;4.662;2023-07-13T14:30:22;23.72;54.28
78315;SHT31;68596;52.080;4.662;2023-07-13T14:33:11;23.72;54.27
78315;SHT31;68596;52.080;4.662;2023-07-13T14:35:56;23.72;54.58
78315;SHT31;68596;52.080;4.662;2023-07-13T14:38:41;23.77;54.80
78315;SHT31;68596;52.080;4.662;2023-07-13T14:41:25;23.76;55.56
78315;SHT31;68596;52.080;4.662;2023-07-13T14:44:15;23.79;55.55
78315;SHT31;68596;52.080;4.662;2023-07-13T14:47:03;23.80;55.91
78315;SHT31;68596;52.080;4.662;2023-07-13T14:49:51;23.80;55.41
78315;SHT31;68596;52.080;4.662;2023-07-13T14:52:35;23.82;55.56
78315;SHT31;68596;52.080;4.662;2023-07-13T14:55:19;23.79;55.20
78315;SHT31;68596;52.080;4.662;2023-07-13T14:58:03;23.77;54.98
78315;SHT31;68596;52.080;4.662;2023-07-13T15:00:47;23.73;56.16
78315;SHT31;68596;52.080;4.662;2023-07-13T15:03:34;23.67;56.04
78315;SHT31;68596;52.080;4.662;2023-07-13T15:06:19;23.69;55.78
78315;SHT31;68596;52.080;4.662;2023-07-13T15:09:03;23.66;55.06
78315;SHT31;68596;52.080;4.662;2023-07-13T15:11:47;23.65;56.01
78315;SHT31;68596;52.080;4.662;2023-07-13T15:14:31;23.63;56.10
78315;SHT31;68596;52.080;4.662;2023-07-13T15:17:37;23.65;55.67
78315;SHT31;68596;52.080;4.662;2023-07-13T15:20:28;23.59;55.74
78315;SHT31;68596;52.080;4.662;2023-07-13T15:23:16;23.59;55.56
78315;SHT31;68596;52.080;4.662;2023-07-13T15:26:01;23.59;55.76
78315;SHT31;68596;52.080;4.662;2023-07-13T15:28:46;23.59;56.22
78315;SHT31;68596;52.080;4.662;2023-07-13T15:31:32;23.59;56.80
78315;SHT31;68596;52.080;4.662;2023-07-13T15:34:23;23.60;56.61
78315;SHT31;68596;52.080;4.662;2023-07-13T15:37:14;23.65;55.70
78315;SHT31;68596;52.080;4.662;2023-07-13T15:40:00;23.66;55.76
78315;SHT31;68596;52.080;4.662;2023-07-13T15:42:46;23.62;55.67
78315;SHT31;68596;52.080;4.662;2023-07-13T15:45:30;23.60;55.90
78315;SHT31;68596;52.080;4.662;2023-07-13T15:51:03;23.58;55.07
78315;SHT31;68596;52.080;4.662;2023-07-13T15:53:48;23.58;55.24
78315;SHT31;68596;52.080;4.662;2023-07-13T15:56:36;23.56;55.73
78315;SHT31;68596;52.080;4.662;2023-07-13T15:59:21;23.55;56.17
78315;SHT31;68596;52.080;4.662;2023-07-13T16:02:16;23.53;56.72
78315;SHT31;68596;52.080;4.662;2023-07-13T16:05:01;23.53;55.82
78315;SHT31;68596;52.080;4.662;2023-07-13T16:07:46;23.50;56.10
78315;SHT31;68596;52.080;4.662;2023-07-13T16:10:37;23.49;56.59
78315;SHT31;68596;52.080;4.662;2023-07-13T16:13:24;23.49;56.50
78315;SHT31;68596;52.080;4.662;2023-07-13T16:16:10;23.48;56.50
78315;SHT31;68596;52.080;4.662;2023-07-13T16:18:56;23.46;56.29
78315;SHT31;68596;52.080;4.662;2023-07-13T16:21:44;23.45;56.69
78315;SHT31;68596;52.080;4.662;2023-07-13T16:24:30;23.43;56.74
78315;SHT31;68596;52.080;4.662;2023-07-13T16:27:16;23.48;56.58
78315;SHT31;68596;52.080;4.662;2023-07-13T16:30:14;23.45;56.61
78315;SHT31;68596;52.080;4.662;2023-07-13T16:33:03;23.46;57.07
78315;SHT31;68596;52.080;4.662;2023-07-13T16:35:51;23.48;56.70
78315;SHT31;68596;52.080;4.662;2023-07-13T16:38:36;23.45;57.16
78315;SHT31;68596;52.080;4.662;2023-07-13T16:41:21;23.46;56.09
78315;SHT31;68596;52.080;4.662;2023-07-13T16:44:17;23.45;56.89
78315;SHT31;68596;52.080;4.662;2023-07-13T16:47:13;23.43;57.44
78315;SHT31;68596;52.080;4.662;2023-07-13T16:49:57;23.42;57.51
78315;SHT31;68596;52.080;4.662;2023-07-13T16:52:41;23.41;56.64
78315;SHT31;68596;52.080;4.662;2023-07-13T16:55:27;23.38;57.08
78315;SHT31;68596;52.080;4.662;2023-07-13T16:58:11;23.35;57.51
78315;SHT31;68596;52.080;4.662;2023-07-13T17:00:57;23.37;57.54
78315;SHT31;68596;52.080;4.662;2023-07-13T17:03:42;23.35;57.46
78315;SHT31;68596;52.080;4.662;2023-07-13T17:06:29;23.35;57.47
78315;SHT31;68596;52.080;4.662;2023-07-13T17:09:14;23.32;57.86
78315;SHT31;68596;52.080;4.662;2023-07-13T17:11:58;23.29;57.26
78315;SHT31;68596;52.080;4.662;2023-07-13T17:14:43;23.26;57.47
78315;SHT31;68596;52.080;4.662;2023-07-13T17:17:34;23.22;57.62
78315;SHT31;68596;52.080;4.662;2023-07-13T17:20:30;23.19;57.04
78315;SHT31;68596;52.080;4.662;2023-07-13T17:23:22;23.14;57.52
78315;SHT31;68596;52.080;4.662;2023-07-13T17:26:08;23.14;58.21
78315;SHT31;68596;52.080;4.662;2023-07-13T17:28:53;23.09;58.21
78315;SHT31;68596;52.080;4.662;2023-07-13T17:31:39;23.11;57.53
78315;SHT31;68596;52.080;4.662;2023-07-13T17:34:23;23.09;57.85
78315;SHT31;68596;52.080;4.662;2023-07-13T17:37:12;23.09;57.98
78315;SHT31;68596;52.080;4.662;2023-07-13T17:39:57;23.09;58.02
78315;SHT31;68596;52.080;4.662;2023-07-13T17:42:41;23.08;57.88
78315;SHT31;68596;52.080;4.662;2023-07-13T17:45:29;23.07;57.93
78315;SHT31;68596;52.080;4.662;2023-07-13T17:48:14;23.04;57.74
78315;SHT31;68596;52.080;4.662;2023-07-13T17:50:58;23.05;58.12
78315;SHT31;68596;52.080;4.662;2023-07-13T17:53:43;23.05;58.16
78315;SHT31;68596;52.080;4.662;2023-07-13T17:56:27;23.04;58.13
78315;SHT31;68596;52.080;4.662;2023-07-13T17:59:11;23.02;57.72
78315;SHT31;68596;52.080;4.662;2023-07-13T18:01:56;22.99;58.14
78315;SHT31;68596;52.080;4.662;2023-07-13T18:04:40;22.99;57.48
78315;SHT31;68596;52.080;4.662;2023-07-13T18:07:24;22.98;57.82
78315;SHT31;68596;52.080;4.662;2023-07-13T18:10:13;22.97;58.01
78315;SHT31;68596;52.080;4.662;2023-07-13T18:12:59;22.97;57.72